Startpagina
METAR-TAF:

METAR-TAF

Vliegvelden :

Vliegbasis Volkel

Uden, Nederland

breedte: 51-39N, lengte: 005-42E, hoogte: 22 m

Actueel weer

Dit bericht is 7 minuten geleden gemaakt, om 13:55 UTC
Wind 6 kt uit het oostzuidoosten, variërend tussen het oostnoordoosten en het zuidoosten
Temperatuur 10°C
Vochtigheid 71%
Druk 1027 hPa
Zicht 10 km of meer
geen wolken onder 1500 m en geen cumulonimbus

METAR: EHVK 161355Z AUTO 09005KT 070V130 9999 NCD 10/05 Q1027 BLU 11006KT CAVOK

Tijdstip: 15:02 (14:02 UTC)

Verwachting

Dit bericht is 4 uur en het 40 minuten geleden gemaakt, om 09:22 UTC
Verwachting geldig van 16 om 10 UTC tot 16 om 22 UTC
Wind 6 kt uit het oosten
Zicht: 3000 m
nevel
Wijzigt naar
van 16 om 10 UTC tot 16 om 12 UTC
Zicht: 6000 m

TAF: EHVK 160922Z 1610/1622 09006KT 3000 BR NSC BECMG 1610/1612 6000 NSW

Waarnemingen en weersverwachtingen van meer dan 4000 vliegvelden (METAR en TAF).

De beschikbare stations zijn de gele en rode punten op de kaart.

Ga met uw muis naar het station om de naam te zien.

Klik dan om waarnemingen en weersverwachtingen te zien.

kaart wijzigen: klik op de groene knoppen met een zwart kruis om in te zoomen, op de groene knop met een streepje om uit te zoomen of op de groene pijlen voor aangrenzende kaarten.


METAR-TAF: